Terminal Aerodrome Forecast
Issued by NWS Portland, OR

Home | Current Version | Previous Version | Text Only | Print | Product List | Glossary On
Versions: 1 2 3 4 5 6 7 8 9 10 11 12 13 14 15 16 17 18 19 20 21 22 23 24 25 26 27 28 29 30 31
000
FTUS46 KPQR 271126
TAFSLE
TAF
KSLE 271126Z 2712/2812 16004KT 2SM BR SCT003 BKN080
     FM271600 VRB03KT P6SM SCT080 SCT250
     FM272100 03007KT P6SM SCT250
     FM280200 VRB03KT P6SM SCT250
     FM280900 18006KT P6SM OVC050=

USA.gov is the U.S. government's official web portal to all federal, state and local government web resources and services.